createdAt,value
2023-01-08T00:01:00.874Z,91.70
2023-01-08T00:03:52.800Z,102.80
2023-01-08T00:06:25.547Z,82.05
2023-01-08T00:08:57.557Z,92.90
2023-01-08T00:11:30.036Z,85.30
2023-01-08T00:14:01.442Z,95.63
2023-01-08T00:16:33.982Z,82.15
2023-01-08T00:19:11.164Z,93.35
2023-01-08T00:21:43.385Z,98.20
2023-01-08T00:24:14.811Z,91.40
2023-01-08T00:26:46.321Z,90.25
2023-01-08T00:29:17.832Z,85.15
2023-01-08T00:31:49.383Z,89.88
2023-01-08T00:34:23.990Z,89.15
2023-01-08T00:36:55.853Z,89.18
2023-01-08T00:39:27.592Z,85.55
2023-01-08T00:41:58.888Z,85.72
2023-01-08T00:47:01.193Z,86.50
2023-01-08T00:49:35.521Z,87.05
2023-01-08T00:52:08.243Z,92.65
2023-01-08T00:54:40.129Z,90.35
2023-01-08T00:57:11.588Z,80.07
2023-01-08T00:59:43.098Z,85.72
2023-01-08T01:02:14.862Z,79.15
2023-01-08T01:04:48.880Z,84.72
2023-01-08T01:07:20.218Z,79.38
2023-01-08T01:09:51.757Z,75.47
2023-01-08T01:12:23.375Z,92.63
2023-01-08T01:14:54.154Z,70.05
2023-01-08T01:17:25.571Z,95.70
2023-01-08T01:19:59.716Z,74.10
2023-01-08T01:22:31.044Z,78.30
2023-01-08T01:25:03.092Z,77.30
2023-01-08T01:27:35.222Z,92.95
2023-01-08T01:30:06.904Z,81.90
2023-01-08T01:32:39.223Z,84.63
2023-01-08T01:35:14.144Z,69.90
2023-01-08T01:37:46.240Z,77.88
2023-01-08T01:40:17.098Z,78.28
2023-01-08T01:42:48.420Z,70.93
2023-01-08T01:45:24.078Z,81.72
2023-01-08T01:48:00.433Z,74.07
2023-01-08T01:50:40.826Z,78.93
2023-01-08T01:53:18.665Z,79.53
2023-01-08T01:55:50.798Z,73.50
2023-01-08T01:58:26.271Z,71.65
2023-01-08T02:00:58.939Z,81.90
2023-01-08T02:03:33.212Z,76.63
2023-01-08T02:06:14.299Z,75.07
2023-01-08T02:08:55.663Z,72.00
2023-01-08T02:11:35.380Z,80.55
2023-01-08T02:14:14.853Z,74.33
2023-01-08T02:16:52.199Z,67.45
2023-01-08T02:19:37.776Z,69.63
2023-01-08T02:22:18.643Z,68.53
2023-01-08T02:24:58.837Z,65.45
2023-01-08T02:27:34.950Z,77.45
2023-01-08T02:30:08.639Z,69.18
2023-01-08T02:32:44.773Z,58.47
2023-01-08T02:35:16.706Z,71.68
2023-01-08T02:37:48.551Z,63.08
2023-01-08T02:40:30.669Z,65.97
2023-01-08T02:43:11.579Z,64.95
2023-01-08T02:45:49.293Z,63.38
2023-01-08T02:48:26.321Z,61.75
2023-01-08T02:51:03.511Z,71.28
2023-01-08T02:53:39.592Z,58.63
2023-01-08T02:56:14.140Z,71.38
2023-01-08T02:58:49.898Z,59.95
2023-01-08T03:01:23.411Z,58.45
2023-01-08T03:03:57.603Z,62.70
2023-01-08T03:06:30.143Z,60.10
2023-01-08T03:09:03.757Z,60.22
2023-01-08T03:11:41.789Z,59.63
2023-01-08T03:14:21.905Z,55.17
2023-01-08T03:16:58.616Z,54.67
2023-01-08T03:19:34.450Z,58.53
2023-01-08T03:22:10.436Z,50.85
2023-01-08T03:24:42.867Z,55.38
2023-01-08T03:27:19.020Z,61.10
2023-01-08T03:29:55.946Z,58.58
2023-01-08T03:32:29.439Z,53.78
2023-01-08T03:35:02.591Z,64.22
2023-01-08T03:37:42.405Z,48.42
2023-01-08T03:40:19.738Z,48.40
2023-01-08T03:42:51.135Z,50.35
2023-01-08T03:45:25.906Z,50.95
2023-01-08T03:47:58.577Z,49.67
2023-01-08T03:50:32.585Z,52.05
2023-01-08T03:53:03.875Z,48.92
2023-01-08T03:55:35.199Z,50.83
2023-01-08T03:58:07.620Z,47.78
2023-01-08T04:00:41.165Z,51.15
2023-01-08T04:03:12.275Z,59.92
2023-01-08T04:05:43.148Z,48.83
2023-01-08T04:08:14.447Z,47.30
2023-01-08T04:13:16.023Z,51.55
2023-01-08T04:18:24.243Z,53.53
2023-01-08T04:23:26.447Z,82.80
2023-01-08T04:25:58.106Z,56.22
2023-01-08T04:28:29.345Z,49.60
2023-01-08T04:33:34.285Z,46.60
2023-01-08T04:36:06.820Z,50.55
2023-01-08T04:38:37.935Z,44.63
2023-01-08T04:43:40.221Z,46.97
2023-01-08T04:46:14.029Z,41.38
2023-01-08T04:48:45.993Z,41.95
2023-01-08T04:51:16.879Z,44.80
2023-01-08T04:53:48.496Z,44.72
2023-01-08T04:56:19.297Z,42.92
2023-01-08T04:58:50.774Z,41.60
2023-01-08T05:01:26.493Z,43.03
2023-01-08T05:04:00.271Z,37.35
2023-01-08T05:06:33.087Z,35.63
2023-01-08T05:09:05.107Z,45.17
2023-01-08T05:11:37.528Z,45.33
2023-01-08T05:14:09.020Z,40.20
2023-01-08T05:16:42.520Z,43.80
2023-01-08T05:19:14.528Z,40.55
2023-01-08T05:21:45.446Z,39.55
2023-01-08T05:24:16.751Z,42.83
2023-01-08T05:26:48.343Z,43.00
2023-01-08T05:29:19.583Z,40.20
2023-01-08T05:34:24.675Z,41.22
2023-01-08T05:36:55.592Z,43.63
2023-01-08T05:39:26.924Z,49.35
2023-01-08T05:41:57.684Z,47.95
2023-01-08T05:44:28.863Z,45.35
2023-01-08T05:49:33.067Z,42.97
2023-01-08T05:54:34.848Z,37.90
2023-01-08T05:59:36.613Z,43.20
2023-01-08T06:04:42.172Z,40.78
2023-01-08T06:07:13.342Z,41.85
2023-01-08T06:09:44.827Z,37.45
2023-01-08T06:12:15.612Z,38.75
2023-01-08T06:14:46.727Z,38.22
2023-01-08T06:19:52.606Z,42.55
2023-01-08T06:22:23.499Z,41.28
2023-01-08T06:24:55.047Z,42.22
2023-01-08T06:27:25.852Z,39.25
2023-01-08T06:29:57.094Z,44.63
2023-01-08T06:35:01.800Z,42.47
2023-01-08T06:37:33.432Z,40.55
2023-01-08T06:40:04.670Z,39.55
2023-01-08T06:42:35.749Z,41.33
2023-01-08T06:45:07.455Z,42.05
2023-01-08T06:47:40.837Z,40.53
2023-01-08T06:50:12.829Z,47.60
2023-01-08T06:52:44.445Z,45.70
2023-01-08T06:55:16.030Z,48.05
2023-01-08T06:57:46.829Z,48.97
2023-01-08T07:00:18.840Z,46.15
2023-01-08T07:02:52.476Z,56.10
2023-01-08T07:05:25.230Z,44.58
2023-01-08T07:07:57.566Z,49.08
2023-01-08T07:10:28.770Z,65.45
2023-01-08T07:15:30.872Z,51.08
2023-01-08T07:18:07.084Z,56.00
2023-01-08T07:20:38.784Z,56.60
2023-01-08T07:23:13.249Z,44.53
2023-01-08T07:25:47.605Z,42.53
2023-01-08T07:28:18.726Z,42.08
2023-01-08T07:30:49.985Z,38.13
2023-01-08T07:35:56.625Z,40.83
2023-01-08T07:38:27.755Z,36.75
2023-01-08T07:41:01.913Z,46.65
2023-01-08T07:43:32.993Z,36.15
2023-01-08T07:46:06.361Z,34.28
2023-01-08T07:48:39.976Z,43.85
2023-01-08T07:51:12.365Z,42.05
2023-01-08T07:53:43.920Z,42.92
2023-01-08T07:56:15.307Z,38.22
2023-01-08T07:58:46.864Z,32.40
2023-01-08T08:01:18.816Z,31.05
2023-01-08T08:03:52.607Z,30.38
2023-01-08T08:06:23.989Z,31.27
2023-01-08T08:08:55.598Z,30.20
2023-01-08T08:11:27.136Z,29.15
2023-01-08T08:13:57.951Z,32.78
2023-01-08T08:16:29.428Z,28.67
2023-01-08T08:19:04.427Z,34.40
2023-01-08T08:21:36.150Z,30.58
2023-01-08T08:24:08.260Z,30.45
2023-01-08T08:26:39.992Z,29.95
2023-01-08T08:29:11.442Z,36.28
2023-01-08T08:31:42.940Z,31.85
2023-01-08T08:34:16.960Z,34.72
2023-01-08T08:36:48.490Z,28.95
2023-01-08T08:39:20.354Z,38.17
2023-01-08T08:41:52.241Z,30.55
2023-01-08T08:44:23.948Z,55.75
2023-01-08T08:46:55.427Z,26.75
2023-01-08T08:49:29.690Z,31.65
2023-01-08T08:52:02.409Z,28.08
2023-01-08T08:54:33.487Z,23.73
2023-01-08T08:57:04.922Z,22.85
2023-01-08T08:59:36.488Z,29.92
2023-01-08T09:02:08.781Z,29.20
2023-01-08T09:04:42.417Z,41.47
2023-01-08T09:07:14.424Z,88.22
2023-01-08T09:09:45.732Z,36.90
2023-01-08T09:12:17.472Z,40.58
2023-01-08T09:14:50.425Z,39.72
2023-01-08T09:17:22.277Z,30.50
2023-01-08T09:19:56.495Z,22.65
2023-01-08T09:22:28.106Z,31.48
2023-01-08T09:24:59.489Z,30.63
2023-01-08T09:27:30.937Z,22.33
2023-01-08T09:30:01.730Z,25.45
2023-01-08T09:32:33.509Z,20.48
2023-01-08T09:35:08.019Z,20.60
2023-01-08T09:37:39.572Z,21.35
2023-01-08T09:40:14.143Z,27.13
2023-01-08T09:42:46.130Z,31.25
2023-01-08T09:45:28.845Z,32.10
2023-01-08T09:48:02.435Z,18.88
2023-01-08T09:50:37.922Z,27.52
2023-01-08T09:53:12.673Z,30.15
2023-01-08T09:55:44.559Z,22.17
2023-01-08T09:58:32.028Z,27.23
2023-01-08T10:01:04.856Z,27.80
2023-01-08T10:03:44.679Z,32.30
2023-01-08T10:06:19.511Z,30.33
2023-01-08T10:08:53.181Z,35.05
2023-01-08T10:11:25.339Z,24.73
2023-01-08T10:13:58.997Z,27.90
2023-01-08T10:16:33.568Z,25.67
2023-01-08T10:19:06.743Z,32.25
2023-01-08T10:21:43.826Z,34.20
2023-01-08T10:24:15.529Z,36.75
2023-01-08T10:26:48.006Z,36.78
2023-01-08T10:29:20.637Z,25.77
2023-01-08T10:31:54.489Z,27.35
2023-01-08T10:34:33.777Z,34.70
2023-01-08T10:37:25.771Z,31.45
2023-01-08T10:40:00.937Z,26.13
2023-01-08T10:42:36.355Z,30.58
2023-01-08T10:45:15.513Z,25.95
2023-01-08T10:47:50.944Z,23.33
2023-01-08T10:50:25.776Z,23.50
2023-01-08T10:53:02.064Z,26.65
2023-01-08T10:55:36.317Z,18.50
2023-01-08T10:58:17.293Z,18.27
2023-01-08T11:00:49.200Z,17.48
2023-01-08T11:03:28.618Z,18.58
2023-01-08T11:06:00.004Z,17.13
2023-01-08T11:08:34.026Z,16.42
2023-01-08T11:11:05.466Z,22.65
2023-01-08T11:13:36.309Z,28.15
2023-01-08T11:16:10.752Z,23.25
2023-01-08T11:18:49.966Z,23.83
2023-01-08T11:21:24.313Z,24.00
2023-01-08T11:24:15.356Z,31.30
2023-01-08T11:26:51.889Z,42.10
2023-01-08T11:29:30.407Z,23.30
2023-01-08T11:32:18.383Z,21.33
2023-01-08T11:34:58.485Z,21.13
2023-01-08T11:37:41.387Z,16.75
2023-01-08T11:40:19.800Z,20.73
2023-01-08T11:43:07.588Z,15.32
2023-01-08T11:45:53.258Z,19.40
2023-01-08T11:48:46.072Z,18.60
2023-01-08T11:51:51.953Z,20.73
2023-01-08T11:54:40.160Z,20.63
2023-01-08T11:57:24.137Z,27.83
2023-01-08T12:00:15.099Z,21.52
2023-01-08T12:02:55.571Z,18.35
2023-01-08T12:05:30.791Z,20.77
2023-01-08T12:08:08.802Z,18.83
2023-01-08T12:10:50.990Z,21.00
2023-01-08T12:13:36.095Z,22.60
2023-01-08T12:16:22.228Z,20.10
2023-01-08T12:19:05.534Z,24.15
2023-01-08T12:21:39.904Z,29.02
2023-01-08T12:24:33.992Z,21.83
2023-01-08T12:27:13.840Z,20.77
2023-01-08T12:30:11.012Z,18.70
2023-01-08T12:32:46.273Z,17.23
2023-01-08T12:35:21.759Z,17.75
2023-01-08T12:37:59.453Z,22.17
2023-01-08T12:40:36.184Z,22.77
2023-01-08T12:43:14.294Z,23.83
2023-01-08T12:45:52.045Z,22.67
2023-01-08T12:48:26.933Z,20.63
2023-01-08T12:51:06.727Z,20.75
2023-01-08T12:53:47.481Z,22.52
2023-01-08T12:56:24.248Z,27.35
2023-01-08T12:59:20.915Z,32.03
2023-01-08T13:02:01.667Z,24.77
2023-01-08T13:04:43.198Z,25.05
2023-01-08T13:09:59.708Z,27.08
2023-01-08T13:12:39.554Z,46.95
2023-01-08T13:15:12.105Z,28.60
2023-01-08T13:17:52.309Z,59.20
2023-01-08T13:20:27.132Z,53.13
2023-01-08T13:23:00.828Z,39.42
2023-01-08T13:25:40.143Z,55.45
2023-01-08T13:28:29.939Z,52.65
2023-01-08T13:31:12.497Z,45.30
2023-01-08T13:33:48.103Z,40.58
2023-01-08T13:36:25.418Z,42.83
2023-01-08T13:39:24.797Z,36.33
2023-01-08T13:42:07.186Z,37.65
2023-01-08T13:44:42.832Z,29.30
2023-01-08T13:47:22.778Z,40.15
2023-01-08T13:49:58.221Z,27.90
2023-01-08T13:52:46.669Z,33.30
2023-01-08T13:55:23.008Z,28.02
2023-01-08T13:57:58.519Z,32.58
2023-01-08T14:00:34.010Z,35.45
2023-01-08T14:03:05.237Z,37.53
2023-01-08T14:08:23.992Z,36.00
2023-01-08T14:10:55.455Z,37.55
2023-01-08T14:13:32.140Z,34.03
2023-01-08T14:16:06.410Z,34.17
2023-01-08T14:18:38.100Z,30.50
2023-01-08T14:21:12.090Z,29.08
2023-01-08T14:23:46.052Z,32.35
2023-01-08T14:26:24.891Z,34.05
2023-01-08T14:28:56.734Z,29.58
2023-01-08T14:31:29.460Z,33.50
2023-01-08T14:34:03.117Z,27.90
2023-01-08T14:36:36.774Z,31.25
2023-01-08T14:39:14.293Z,35.75
2023-01-08T14:41:58.040Z,28.25
2023-01-08T14:44:38.034Z,38.40
2023-01-08T14:47:21.614Z,32.70
2023-01-08T14:49:56.179Z,39.00
2023-01-08T14:52:29.951Z,38.53
2023-01-08T14:55:03.768Z,36.42
2023-01-08T14:57:34.659Z,53.22
2023-01-08T15:00:06.273Z,44.53
2023-01-08T15:02:39.630Z,43.60
2023-01-08T15:05:20.286Z,41.45
2023-01-08T15:08:03.380Z,31.95
2023-01-08T15:10:41.696Z,37.58
2023-01-08T15:13:26.075Z,37.33
2023-01-08T15:16:00.246Z,35.90
2023-01-08T15:18:31.173Z,35.53
2023-01-08T15:21:02.669Z,39.30
2023-01-08T15:23:42.948Z,34.25
2023-01-08T15:26:16.127Z,39.70
2023-01-08T15:28:57.306Z,69.50
2023-01-08T15:31:33.503Z,56.67
2023-01-08T15:34:04.707Z,49.20
2023-01-08T15:36:35.936Z,52.38
2023-01-08T15:41:54.387Z,41.33
2023-01-08T15:44:26.429Z,38.60
2023-01-08T15:46:57.839Z,36.72
2023-01-08T15:49:28.565Z,35.13
2023-01-08T15:51:59.820Z,40.35
2023-01-08T15:57:04.362Z,36.95
2023-01-08T15:59:37.644Z,37.70
2023-01-08T16:02:08.805Z,36.03
2023-01-08T16:07:10.512Z,36.20
2023-01-08T16:12:14.834Z,38.70
2023-01-08T16:14:46.040Z,43.90
2023-01-08T16:17:17.227Z,49.22
2023-01-08T16:22:18.885Z,35.05
2023-01-08T16:24:52.489Z,41.35
2023-01-08T16:27:23.879Z,49.30
2023-01-08T16:32:25.613Z,39.40
2023-01-08T16:37:27.842Z,39.25
2023-01-08T16:40:01.464Z,49.17
2023-01-08T16:42:32.639Z,44.63
2023-01-08T16:47:34.396Z,52.97
2023-01-08T16:50:05.387Z,48.17
2023-01-08T16:52:36.575Z,49.58
2023-01-08T16:57:42.550Z,54.97
2023-01-08T17:00:15.641Z,56.53
2023-01-08T17:02:47.448Z,70.85
2023-01-08T17:05:18.956Z,65.88
2023-01-08T17:07:54.193Z,55.13
2023-01-08T17:10:29.504Z,52.45
2023-01-08T17:13:00.841Z,53.63
2023-01-08T17:15:32.893Z,57.22
2023-01-08T17:18:04.822Z,48.65
2023-01-08T17:20:36.633Z,59.60
2023-01-08T17:23:08.752Z,52.60
2023-01-08T17:25:46.063Z,54.42
2023-01-08T17:28:17.562Z,56.08
2023-01-08T17:30:49.001Z,53.80
2023-01-08T17:33:20.731Z,44.60
2023-01-08T17:35:51.515Z,49.92
2023-01-08T17:38:23.678Z,42.90
2023-01-08T17:40:57.310Z,51.05
2023-01-08T17:43:29.249Z,41.22
2023-01-08T17:46:04.261Z,43.00
2023-01-08T17:48:36.451Z,73.50
2023-01-08T17:51:09.844Z,70.05
2023-01-08T17:53:40.967Z,58.30
2023-01-08T17:58:46.818Z,52.30
2023-01-08T18:01:19.418Z,41.65
2023-01-08T18:03:51.514Z,42.92
2023-01-08T18:06:23.168Z,40.88
2023-01-08T18:08:54.676Z,47.58
2023-01-08T18:11:28.761Z,44.05
2023-01-08T18:14:00.465Z,82.22
2023-01-08T18:16:32.506Z,46.08
2023-01-08T18:19:04.101Z,53.08
2023-01-08T18:21:34.888Z,47.15
2023-01-08T18:24:06.536Z,43.50
2023-01-08T18:26:41.261Z,56.42
2023-01-08T18:29:12.836Z,38.63
2023-01-08T18:31:46.283Z,44.17
2023-01-08T18:34:18.478Z,41.83
2023-01-08T18:36:49.872Z,46.00
2023-01-08T18:39:22.560Z,40.83
2023-01-08T18:42:08.431Z,49.83
2023-01-08T18:44:39.827Z,42.15
2023-01-08T18:47:12.653Z,50.78
2023-01-08T18:49:44.070Z,50.85
2023-01-08T18:54:46.492Z,46.95
2023-01-08T18:57:20.247Z,45.97
2023-01-08T18:59:52.322Z,42.58
2023-01-08T19:02:25.141Z,54.58
2023-01-08T19:04:56.848Z,54.78
2023-01-08T19:07:28.732Z,58.70
2023-01-08T19:10:01.458Z,58.90
2023-01-08T19:12:35.363Z,74.70
2023-01-08T19:15:07.059Z,51.72
2023-01-08T19:17:37.951Z,52.97
2023-01-08T19:20:10.359Z,56.28
2023-01-08T19:22:41.526Z,56.22
2023-01-08T19:25:15.125Z,46.97
2023-01-08T19:27:48.733Z,47.78
2023-01-08T19:30:20.780Z,45.72
2023-01-08T19:32:51.944Z,53.42
2023-01-08T19:35:23.524Z,47.25
2023-01-08T19:37:54.419Z,42.08
2023-01-08T19:40:26.715Z,47.63
2023-01-08T19:43:12.989Z,50.22
2023-01-08T19:45:44.703Z,50.55
2023-01-08T19:48:15.961Z,47.25
2023-01-08T19:50:48.496Z,56.97
2023-01-08T19:53:19.979Z,50.92
2023-01-08T19:55:51.469Z,56.33
2023-01-08T19:58:28.992Z,55.22
2023-01-08T20:01:05.887Z,49.90
2023-01-08T20:03:37.648Z,47.35
2023-01-08T20:06:11.189Z,52.45
2023-01-08T20:08:44.344Z,48.72
2023-01-08T20:11:19.492Z,51.17
2023-01-08T20:13:55.653Z,49.20
2023-01-08T20:16:27.933Z,46.65
2023-01-08T20:19:02.177Z,48.67
2023-01-08T20:21:35.298Z,50.75
2023-01-08T20:24:10.605Z,51.47
2023-01-08T20:26:43.419Z,48.58
2023-01-08T20:29:18.534Z,53.97
2023-01-08T20:31:57.021Z,54.65
2023-01-08T20:34:28.551Z,55.78
2023-01-08T20:37:00.758Z,52.60
2023-01-08T20:39:31.556Z,57.78
2023-01-08T20:42:04.872Z,58.25
2023-01-08T20:44:39.686Z,56.72
2023-01-08T20:47:12.489Z,57.60
2023-01-08T20:49:43.577Z,62.33
2023-01-08T20:52:16.676Z,54.58
2023-01-08T20:54:47.893Z,47.92
2023-01-08T20:57:19.472Z,56.30
2023-01-08T20:59:53.636Z,56.38
2023-01-08T21:02:25.036Z,59.75
2023-01-08T21:04:56.732Z,59.10
2023-01-08T21:07:30.039Z,59.92
2023-01-08T21:10:01.357Z,52.42
2023-01-08T21:12:32.506Z,60.13
2023-01-08T21:17:40.133Z,54.17
2023-01-08T21:22:43.436Z,63.22
2023-01-08T21:25:15.003Z,63.22
2023-01-08T21:27:46.147Z,59.80
2023-01-08T21:30:20.254Z,61.30
2023-01-08T21:32:51.824Z,64.22
2023-01-08T21:35:23.452Z,62.22
2023-01-08T21:37:55.213Z,69.55
2023-01-08T21:40:26.502Z,60.42
2023-01-08T21:43:10.460Z,63.65
2023-01-08T21:45:44.877Z,60.03
2023-01-08T21:48:16.756Z,61.78
2023-01-08T21:50:48.405Z,66.13
2023-01-08T21:53:33.221Z,54.88
2023-01-08T21:56:07.610Z,64.07
2023-01-08T21:58:39.375Z,60.15
2023-01-08T22:01:15.007Z,58.33
2023-01-08T22:03:46.750Z,56.30
2023-01-08T22:06:18.092Z,65.45
2023-01-08T22:08:56.921Z,61.88
2023-01-08T22:11:27.847Z,58.78
2023-01-08T22:14:00.574Z,70.57
2023-01-08T22:16:34.467Z,56.15
2023-01-08T22:19:07.013Z,63.35
2023-01-08T22:21:39.099Z,55.20
2023-01-08T22:24:12.181Z,63.33
2023-01-08T22:26:43.639Z,67.78
2023-01-08T22:29:14.724Z,52.88
2023-01-08T22:34:20.062Z,57.30
2023-01-08T22:36:54.156Z,57.25
2023-01-08T22:39:25.551Z,54.10
2023-01-08T22:41:57.076Z,65.45
2023-01-08T22:44:28.619Z,61.70
2023-01-08T22:47:03.011Z,61.58
2023-01-08T22:49:35.420Z,58.20
2023-01-08T22:52:06.733Z,63.58
2023-01-08T22:54:38.121Z,56.33
2023-01-08T22:57:10.375Z,61.08
2023-01-08T22:59:41.643Z,63.05
2023-01-08T23:02:19.350Z,59.53
2023-01-08T23:04:53.263Z,69.85
2023-01-08T23:07:24.896Z,66.72
2023-01-08T23:09:56.736Z,64.78
2023-01-08T23:12:28.138Z,55.92
2023-01-08T23:14:59.428Z,54.47
2023-01-08T23:17:38.973Z,66.05
2023-01-08T23:20:19.139Z,61.15
2023-01-08T23:22:51.425Z,61.35
2023-01-08T23:25:23.168Z,56.78
2023-01-08T23:27:54.493Z,60.03
2023-01-08T23:30:31.462Z,58.13
2023-01-08T23:33:05.193Z,55.63
2023-01-08T23:35:36.558Z,56.00
2023-01-08T23:38:08.038Z,61.95
2023-01-08T23:40:39.668Z,59.03
2023-01-08T23:43:10.404Z,64.43
2023-01-08T23:45:42.234Z,59.60
2023-01-08T23:48:16.105Z,62.58
2023-01-08T23:50:47.344Z,63.75
2023-01-08T23:55:49.093Z,63.13
